Enter the Airport ICAO Code

Search by Airport or City

Current Weather

LGAV | Athens International Airport (Eleftherios Venizelos Airport)

Athens, Greece

Last Update 23 Minutes Ago

Partly Cloudy Sky

Temperature of 16 ºC

Light to Moderate Winds from SouthEast

Temperature

16 ºC

Dew Point Temperature

04 ºC

Relative Humidity

44.9 %

Wind Direction

SouthEast (120º, Ranging from 080º to 150º)

Wind Velocity

11 km/h (06 kt)

Gusts

None

Visibility

Greater than 10 Kilometers

Sea Level Pressure

1016 hPa (Hectopascals)

Layers of Clouds

30% to 60% of Sky Covered from 1067 mts (3500 ft) Above Ground Level.

METAR LGAV 090950Z 12006KT 080V150 9999 SCT035 16/04 Q1016 NOSIG

Weather Forecast

LGAV | Athens International Airport (Eleftherios Venizelos Airport)

Athens, Greece

Forecast valid for the next 20 Hours

From now on it is expected:

Moderate Winds from East

In 6 to 8 hours it is expected the begining of:

Sky with Few Clouds

Moderate Winds from North

Maximum Temperature

No Data

Minimum Temperature

No Data

TAF LGAV 090500Z 0906/1006 VRB05KT 9999 FEW018 SCT035 BECMG 0906/0908 08010KT BECMG 0916/0918 01010KT FEW020